Time;durP1;ratioP1;P1;durP2;ratioP2;P2;SDS_P1;SDS_P2;PMS_P1;PMS_P2;Temp;Humidity;BMP_temperature;BMP_pressure;BME280_temperature;BME280_humidity;BME280_pressure;Samples;Min_cycle;Max_cycle;Signal;HPM_P1;HPM_P2
2021/06/26 06:14:29;;;;;;;12.48;6.90;;;18.70;99.90;;;;;;4762808;22;20064;-72
2021/06/26 06:17:10;;;;;;;9.77;4.95;;;18.80;99.90;;;;;;5014742;28;20046;-73
2021/06/26 06:19:36;;;;;;;12.02;6.90;;;18.80;99.90;;;;;;5024685;28;20108;-72
2021/06/26 06:22:08;;;;;;;11.45;6.25;;;18.90;99.90;;;;;;5021045;28;20102;-73
2021/06/26 06:24:33;;;;;;;9.00;5.32;;;19.00;99.90;;;;;;5024583;28;20029;-71
2021/06/26 06:27:00;;;;;;;12.93;6.90;;;19.10;99.90;;;;;;5022617;28;20089;-75
2021/06/26 06:29:26;;;;;;;13.82;6.07;;;19.20;99.90;;;;;;5021147;28;20272;-73
2021/06/26 06:31:52;;;;;;;11.50;6.47;;;19.30;99.90;;;;;;5022856;28;20460;-74
2021/06/26 06:34:17;;;;;;;11.85;6.38;;;19.40;99.90;;;;;;5017345;28;20033;-73
2021/06/26 06:36:43;;;;;;;31.80;6.90;;;19.50;99.90;;;;;;5011621;28;20038;-72
2021/06/26 06:39:08;;;;;;;14.70;6.07;;;19.60;99.90;;;;;;5010449;28;20116;-73
2021/06/26 06:41:35;;;;;;;15.32;6.30;;;19.70;99.90;;;;;;5025176;28;20026;-75
2021/06/26 06:44:01;;;;;;;12.50;6.65;;;19.80;99.90;;;;;;5024776;28;20030;-71
2021/06/26 06:46:26;;;;;;;11.60;6.68;;;19.90;99.90;;;;;;5024747;28;20033;-73
2021/06/26 06:48:52;;;;;;;8.43;5.55;;;19.90;99.90;;;;;;5024828;28;20037;-73
2021/06/26 06:51:18;;;;;;;11.63;6.50;;;20.00;99.90;;;;;;5024516;28;20022;-71
2021/06/26 06:53:43;;;;;;;12.77;6.80;;;20.00;99.90;;;;;;5024916;28;20034;-72
2021/06/26 06:56:09;;;;;;;11.60;6.20;;;20.10;99.90;;;;;;5024958;28;20045;-74
2021/06/26 06:58:35;;;;;;;11.05;6.78;;;20.10;99.90;;;;;;5024635;28;20040;-73
2021/06/26 07:01:00;;;;;;;18.63;6.65;;;20.20;99.90;;;;;;5024603;28;20030;-72
2021/06/26 07:03:26;;;;;;;12.70;6.75;;;20.20;99.90;;;;;;5024738;28;20018;-72
2021/06/26 07:05:52;;;;;;;11.93;5.95;;;20.30;99.90;;;;;;5023370;28;20063;-71
2021/06/26 07:08:17;;;;;;;9.77;5.38;;;20.40;99.90;;;;;;5022977;28;20026;-74
2021/06/26 07:10:43;;;;;;;11.48;6.75;;;20.40;99.90;;;;;;5015820;28;20029;-71
2021/06/26 07:13:10;;;;;;;8.30;5.55;;;20.50;99.90;;;;;;5007852;28;20042;-73
2021/06/26 07:15:36;;;;;;;9.02;5.00;;;20.50;99.90;;;;;;5016880;28;20066;-74
2021/06/26 07:18:12;;;;;;;19.00;6.70;;;20.60;99.90;;;;;;5019969;28;20030;-73
2021/06/26 07:20:41;;;;;;;12.00;6.30;;;20.70;99.90;;;;;;5022972;28;20057;-73
2021/06/26 07:23:07;;;;;;;14.90;6.88;;;20.70;99.90;;;;;;5024742;28;20109;-73
2021/06/26 07:25:33;;;;;;;11.13;5.82;;;20.80;99.90;;;;;;5011390;28;20041;-71
2021/06/26 07:27:58;;;;;;;14.10;7.50;;;20.80;99.90;;;;;;5023314;28;20026;-72
2021/06/26 07:30:24;;;;;;;12.45;7.32;;;20.90;99.90;;;;;;5012433;28;20026;-73
2021/06/26 07:32:50;;;;;;;10.27;5.70;;;20.90;99.90;;;;;;5008049;28;20398;-74
2021/06/26 07:35:16;;;;;;;14.90;6.43;;;21.00;99.90;;;;;;5023093;28;20026;-73
2021/06/26 07:37:43;;;;;;;14.45;6.90;;;21.00;99.90;;;;;;5027729;28;20037;-73
2021/06/26 07:40:09;;;;;;;11.80;6.05;;;21.00;99.90;;;;;;5026977;28;20057;-72
2021/06/26 07:42:35;;;;;;;17.33;6.97;;;21.10;99.90;;;;;;5026989;28;20413;-73
2021/06/26 07:45:01;;;;;;;10.30;6.28;;;21.10;99.90;;;;;;5028507;28;20022;-75
2021/06/26 07:47:27;;;;;;;10.35;6.45;;;21.20;99.90;;;;;;5027774;28;20036;-75
2021/06/26 07:49:53;;;;;;;11.48;6.70;;;21.30;99.90;;;;;;5029430;28;20081;-73
2021/06/26 07:52:18;;;;;;;9.32;5.93;;;21.30;99.90;;;;;;5028182;28;20057;-74
2021/06/26 07:54:44;;;;;;;13.23;7.13;;;21.30;99.90;;;;;;5026848;28;20029;-74
2021/06/26 07:57:09;;;;;;;13.07;7.70;;;21.40;99.90;;;;;;5028133;28;20046;-73
2021/06/26 07:59:35;;;;;;;10.32;5.78;;;21.30;99.90;;;;;;5027696;28;20069;-72
2021/06/26 08:02:00;;;;;;;11.73;6.43;;;21.40;99.90;;;;;;5024248;28;20026;-72
2021/06/26 08:04:26;;;;;;;9.27;6.32;;;21.40;99.90;;;;;;5017951;28;20485;-72
2021/06/26 08:06:52;;;;;;;14.02;6.85;;;21.40;99.90;;;;;;5019727;28;20044;-72
2021/06/26 08:09:17;;;;;;;13.13;6.80;;;21.50;99.90;;;;;;5008076;28;20114;-71
2021/06/26 08:11:43;;;;;;;11.00;6.30;;;21.60;99.90;;;;;;5008098;28;20116;-72
2021/06/26 08:14:09;;;;;;;15.15;7.07;;;21.60;99.90;;;;;;5020636;28;20089;-72
2021/06/26 08:16:35;;;;;;;10.90;6.72;;;21.70;99.90;;;;;;5026982;28;20037;-72
2021/06/26 08:19:01;;;;;;;11.55;5.82;;;21.80;99.90;;;;;;5021113;28;20038;-72
2021/06/26 08:21:27;;;;;;;15.20;7.65;;;21.80;99.90;;;;;;5026981;28;20352;-71
2021/06/26 08:23:53;;;;;;;13.40;7.20;;;21.90;99.90;;;;;;5027501;28;20026;-72
2021/06/26 08:26:18;;;;;;;11.07;6.78;;;22.00;99.90;;;;;;5027456;28;20033;-72
2021/06/26 08:28:45;;;;;;;12.90;6.60;;;22.10;99.90;;;;;;5027179;28;20367;-72
2021/06/26 08:31:13;;;;;;;16.63;6.97;;;22.20;99.90;;;;;;5027528;28;20378;-73
2021/06/26 08:33:41;;;;;;;13.73;7.30;;;22.30;99.90;;;;;;5027085;28;20049;-71
2021/06/26 08:36:08;;;;;;;16.17;7.20;;;22.30;99.90;;;;;;5026575;28;20030;-72
2021/06/26 08:38:36;;;;;;;16.08;6.47;;;22.40;99.90;;;;;;5027273;28;20045;-72
2021/06/26 08:41:02;;;;;;;15.00;7.97;;;22.50;99.90;;;;;;5024008;28;20057;-70
2021/06/26 08:43:28;;;;;;;12.70;7.35;;;22.50;99.90;;;;;;5026588;28;20053;-72
2021/06/26 08:45:55;;;;;;;14.30;6.90;;;22.50;99.90;;;;;;5023684;28;20018;-70
2021/06/26 08:48:21;;;;;;;9.90;6.05;;;22.60;99.90;;;;;;5006921;28;20390;-71
2021/06/26 08:50:47;;;;;;;10.75;5.88;;;22.70;99.90;;;;;;5006145;28;20031;-72
2021/06/26 08:53:13;;;;;;;12.10;6.88;;;22.80;99.90;;;;;;5020643;28;20389;-70
2021/06/26 08:55:38;;;;;;;13.60;7.18;;;22.90;99.90;;;;;;5012172;28;20037;-73
2021/06/26 08:58:05;;;;;;;17.30;6.85;;;23.10;99.90;;;;;;5011192;28;20037;-73
2021/06/26 09:00:31;;;;;;;13.60;8.07;;;23.10;99.90;;;;;;5026573;28;20044;-74
2021/06/26 09:03:09;;;;;;;15.48;8.02;;;23.10;99.90;;;;;;5026132;28;20037;-73
2021/06/26 09:05:37;;;;;;;17.50;7.82;;;23.10;99.90;;;;;;5017492;28;20053;-72
2021/06/26 09:08:11;;;;;;;13.60;7.10;;;23.10;99.90;;;;;;5012150;28;20037;-71
2021/06/26 09:10:39;;;;;;;11.65;6.47;;;23.10;99.90;;;;;;5025582;28;20033;-72
2021/06/26 09:13:18;;;;;;;16.00;8.15;;;23.30;99.90;;;;;;5015383;28;20026;-72
2021/06/26 09:15:45;;;;;;;14.30;7.93;;;23.50;99.90;;;;;;5019627;28;20050;-72
2021/06/26 09:18:19;;;;;;;16.17;8.05;;;23.60;99.90;;;;;;5010759;28;20034;-71
2021/06/26 09:20:51;;;;;;;11.68;7.13;;;23.60;99.90;;;;;;5013353;28;20167;-71
2021/06/26 09:23:32;;;;;;;24.75;8.00;;;23.60;99.90;;;;;;5011027;28;20085;-72
2021/06/26 09:26:11;;;;;;;11.57;7.07;;;23.60;99.90;;;;;;5023689;28;20053;-71
2021/06/26 09:28:39;;;;;;;16.05;8.95;;;23.50;99.90;;;;;;5022767;28;20087;-71
2021/06/26 09:31:17;;;;;;;16.98;8.50;;;23.40;99.90;;;;;;5014094;28;20034;-70
2021/06/26 09:33:54;;;;;;;13.35;7.60;;;23.60;99.90;;;;;;5005704;28;20146;-73
2021/06/26 09:36:25;;;;;;;15.55;8.07;;;23.80;99.90;;;;;;5025910;28;20064;-72
2021/06/26 09:39:06;;;;;;;18.13;7.97;;;24.00;99.90;;;;;;5025296;28;20057;-72
2021/06/26 09:41:33;;;;;;;14.10;7.85;;;24.20;99.90;;;;;;5025758;28;20036;-71
2021/06/26 09:44:11;;;;;;;8.98;5.65;;;24.30;99.90;;;;;;5025921;28;20061;-71
2021/06/26 09:46:49;;;;;;;12.00;7.53;;;24.30;99.90;;;;;;5025597;28;20034;-72
2021/06/26 09:49:26;;;;;;;13.20;8.50;;;24.40;99.90;;;;;;5024692;28;20043;-72
2021/06/26 09:51:58;;;;;;;13.48;7.47;;;24.60;99.90;;;;;;5025200;28;20095;-72
2021/06/26 09:54:27;;;;;;;13.82;7.68;;;24.70;99.90;;;;;;5021789;28;22587;-70
2021/06/26 09:56:52;;;;;;;13.68;7.57;;;24.80;99.90;;;;;;5015606;28;20062;-71
2021/06/26 09:59:27;;;;;;;11.90;7.70;;;24.70;99.90;;;;;;5013663;28;20080;-71
2021/06/26 10:01:53;;;;;;;11.48;6.70;;;24.60;99.90;;;;;;5023732;28;20033;-71
2021/06/26 10:04:22;;;;;;;13.40;7.78;;;24.50;99.90;;;;;;5024628;28;20026;-73
2021/06/26 10:06:49;;;;;;;16.42;7.72;;;24.40;99.90;;;;;;5014150;28;20034;-71
2021/06/26 10:09:15;;;;;;;13.10;7.50;;;24.30;99.90;;;;;;5020621;28;20113;-71
2021/06/26 10:11:42;;;;;;;14.43;7.05;;;24.20;99.90;;;;;;5008895;28;20026;-71
2021/06/26 10:14:10;;;;;;;15.02;6.68;;;24.10;99.90;;;;;;5024742;28;20061;-71
2021/06/26 10:16:43;;;;;;;15.60;9.05;;;24.00;99.90;;;;;;5025398;28;20025;-73
2021/06/26 10:19:13;;;;;;;14.70;7.20;;;23.90;99.90;;;;;;5019755;28;20082;-72
2021/06/26 10:21:40;;;;;;;29.48;7.55;;;23.90;99.90;;;;;;5009825;28;20034;-74
2021/06/26 10:24:16;;;;;;;14.23;7.68;;;23.80;99.90;;;;;;5010778;28;20026;-72
2021/06/26 10:26:43;;;;;;;12.50;7.43;;;23.60;99.90;;;;;;5017576;28;20113;-72
2021/06/26 10:29:10;;;;;;;12.93;6.65;;;23.50;99.90;;;;;;5023394;28;20063;-71
2021/06/26 10:31:40;;;;;;;13.93;6.97;;;23.40;99.90;;;;;;5022545;28;20026;-71
2021/06/26 10:34:15;;;;;;;16.88;8.02;;;23.30;99.90;;;;;;5024471;28;20022;-71
2021/06/26 10:36:46;;;;;;;14.52;7.57;;;23.10;99.90;;;;;;5024847;28;20033;-71
2021/06/26 10:39:23;;;;;;;16.58;7.10;;;23.00;99.90;;;;;;5024979;28;20049;-71
2021/06/26 10:42:06;;;;;;;13.35;7.20;;;23.00;99.90;;;;;;5009808;28;20032;-73
2021/06/26 10:44:42;;;;;;;14.95;6.60;;;22.90;99.90;;;;;;5005261;28;20030;-72
2021/06/26 10:47:08;;;;;;;16.33;7.90;;;22.90;99.90;;;;;;5014185;28;20022;-73
2021/06/26 10:49:34;;;;;;;9.18;5.22;;;22.80;99.90;;;;;;5021623;28;20022;-71
2021/06/26 10:52:07;;;;;;;11.93;7.45;;;22.80;99.90;;;;;;5019937;28;20037;-71
2021/06/26 10:54:33;;;;;;;15.27;6.28;;;22.80;99.90;;;;;;5004129;28;20031;-71
2021/06/26 10:57:04;;;;;;;10.13;6.32;;;22.80;99.90;;;;;;5009766;28;20042;-72
2021/06/26 10:59:30;;;;;;;16.65;7.38;;;22.80;99.90;;;;;;5003819;28;20018;-72
2021/06/26 11:02:04;;;;;;;15.18;7.70;;;22.90;99.90;;;;;;5003769;28;20073;-71
2021/06/26 11:04:32;;;;;;;17.48;8.48;;;22.90;99.90;;;;;;5019992;28;20030;-72
2021/06/26 11:07:10;;;;;;;10.48;7.75;;;23.00;99.90;;;;;;5021900;28;20835;-73
2021/06/26 11:09:40;;;;;;;16.30;9.48;;;23.00;99.90;;;;;;5007556;28;20026;-72
2021/06/26 11:12:16;;;;;;;10.82;6.40;;;23.20;99.90;;;;;;5009530;28;20425;-71
2021/06/26 11:14:49;;;;;;;12.75;7.72;;;23.30;99.90;;;;;;5010678;28;20050;-73
2021/06/26 11:17:21;;;;;;;14.02;7.45;;;23.50;99.90;;;;;;5008707;28;20038;-71
2021/06/26 11:19:47;;;;;;;12.55;7.72;;;24.00;99.90;;;;;;5003970;28;20034;-72
2021/06/26 11:22:14;;;;;;;13.73;6.93;;;24.60;99.90;;;;;;5003630;28;20023;-74
2021/06/26 11:24:45;;;;;;;12.68;7.90;;;25.10;99.90;;;;;;5004030;28;20061;-72
2021/06/26 11:27:18;;;;;;;9.77;6.72;;;25.40;99.90;;;;;;5004177;28;20038;-73
2021/06/26 11:29:45;;;;;;;16.40;7.57;;;25.80;99.90;;;;;;5018780;28;20390;-71
2021/06/26 11:32:25;;;;;;;10.77;7.35;;;26.20;99.90;;;;;;5003929;28;20050;-72
2021/06/26 11:35:14;;;;;;;11.77;7.45;;;26.40;99.90;;;;;;5017802;28;20035;-72
2021/06/26 11:37:49;;;;;;;11.85;6.43;;;26.40;99.90;;;;;;5016276;28;20068;-73
2021/06/26 11:40:14;;;;;;;12.75;6.15;;;26.40;99.90;;;;;;5007809;28;20022;-70
2021/06/26 11:42:52;;;;;;;16.05;6.97;;;26.60;99.90;;;;;;5023526;28;20028;-71
2021/06/26 11:45:23;;;;;;;12.52;7.40;;;26.90;99.90;;;;;;5016748;28;20057;-72
2021/06/26 11:47:59;;;;;;;13.70;7.15;;;27.30;99.90;;;;;;5006722;28;20018;-72
2021/06/26 11:50:24;;;;;;;11.35;7.03;;;27.60;99.90;;;;;;5019133;28;20034;-72
2021/06/26 11:52:50;;;;;;;12.55;7.25;;;27.60;99.90;;;;;;5011401;28;20032;-71
2021/06/26 11:55:16;;;;;;;10.32;6.13;;;27.50;99.90;;;;;;5003972;28;20022;-71
2021/06/26 11:57:42;;;;;;;14.75;7.82;;;27.40;99.90;;;;;;5003297;28;20070;-73
2021/06/26 12:00:08;;;;;;;10.02;5.97;;;27.20;99.90;;;;;;5007745;28;20041;-73
2021/06/26 12:02:40;;;;;;;10.65;6.93;;;26.90;99.90;;;;;;5024041;28;20087;-72
2021/06/26 12:05:18;;;;;;;12.23;7.53;;;26.60;99.90;;;;;;5023925;28;20916;-72
2021/06/26 12:07:43;;;;;;;14.88;7.40;;;26.20;99.90;;;;;;5015613;28;20033;-72
2021/06/26 12:10:10;;;;;;;13.32;7.65;;;25.90;99.90;;;;;;5023018;28;20030;-71
2021/06/26 12:12:37;;;;;;;17.58;8.55;;;25.60;99.90;;;;;;5017151;28;20119;-71
2021/06/26 12:15:06;;;;;;;12.02;7.05;;;25.30;99.90;;;;;;5007824;28;20041;-73
2021/06/26 12:17:32;;;;;;;12.02;7.72;;;25.10;99.90;;;;;;5008614;28;20125;-72
2021/06/26 12:20:05;;;;;;;11.45;7.13;;;24.90;99.90;;;;;;5008222;28;20037;-75
2021/06/26 12:22:31;;;;;;;12.80;7.90;;;24.80;99.90;;;;;;5014140;28;20037;-75
2021/06/26 12:25:13;;;;;;;15.50;8.18;;;24.70;99.90;;;;;;5026184;28;20501;-72
2021/06/26 12:27:40;;;;;;;12.40;7.68;;;24.80;99.90;;;;;;5026259;28;20389;-75
2021/06/26 12:30:16;;;;;;;13.52;7.78;;;24.90;99.90;;;;;;5025728;28;20034;-76
2021/06/26 12:32:42;;;;;;;12.15;7.65;;;25.20;99.90;;;;;;5026734;28;20026;-72
2021/06/26 12:35:11;;;;;;;21.15;8.48;;;25.40;99.90;;;;;;5025207;28;20492;-75
2021/06/26 12:37:43;;;;;;;16.98;9.45;;;25.50;99.90;;;;;;5026827;28;20042;-75
2021/06/26 12:40:25;;;;;;;12.75;6.88;;;25.50;99.90;;;;;;5016390;28;20062;-71
2021/06/26 12:43:02;;;;;;;15.98;8.07;;;25.50;99.90;;;;;;5013636;28;20030;-74
2021/06/26 12:45:33;;;;;;;15.75;7.40;;;25.50;99.90;;;;;;5024920;28;20100;-72
2021/06/26 12:48:29;;;;;;;11.20;6.28;;;25.40;99.90;;;;;;5026255;28;20025;-71
2021/06/26 12:51:09;;;;;;;16.10;9.15;;;25.30;99.90;;;;;;5005956;28;20177;-74
2021/06/26 12:53:43;;;;;;;13.85;7.80;;;25.20;99.90;;;;;;5018944;28;20034;-74
2021/06/26 12:56:25;;;;;;;20.45;8.50;;;25.10;99.90;;;;;;5012781;28;20422;-73
2021/06/26 12:58:51;;;;;;;14.40;6.60;;;25.00;99.90;;;;;;5013459;28;20813;-73
2021/06/26 13:01:17;;;;;;;12.60;8.30;;;24.90;99.90;;;;;;5005872;28;20030;-72
2021/06/26 13:03:53;;;;;;;18.42;9.05;;;24.90;99.90;;;;;;5006376;28;20030;-75
2021/06/26 13:06:18;;;;;;;10.27;6.93;;;24.90;99.90;;;;;;5005963;28;20034;-73
2021/06/26 13:08:52;;;;;;;12.23;7.63;;;24.90;99.90;;;;;;5018113;28;20030;-73
2021/06/26 13:11:43;;;;;;;13.35;7.28;;;24.90;99.90;;;;;;5015522;28;20080;-72
2021/06/26 13:14:16;;;;;;;12.90;7.15;;;24.80;99.90;;;;;;5009357;28;20050;-73
2021/06/26 13:16:45;;;;;;;9.67;6.90;;;24.80;99.90;;;;;;5012007;28;20061;-74
2021/06/26 13:19:14;;;;;;;13.10;8.00;;;24.90;99.90;;;;;;5024316;28;20308;-73
2021/06/26 13:21:49;;;;;;;14.00;8.25;;;24.90;99.90;;;;;;5010267;28;20035;-74
2021/06/26 13:24:15;;;;;;;13.95;7.90;;;24.90;99.90;;;;;;5020151;28;20034;-73
2021/06/26 13:26:41;;;;;;;11.75;7.15;;;24.90;99.90;;;;;;5011080;28;20069;-71
2021/06/26 13:29:11;;;;;;;12.63;7.63;;;25.00;99.90;;;;;;5020030;28;20446;-74
2021/06/26 13:31:37;;;;;;;10.85;6.43;;;25.10;99.90;;;;;;5020708;28;20394;-73
2021/06/26 13:34:05;;;;;;;15.65;8.48;;;25.10;99.90;;;;;;5005490;28;20073;-71
2021/06/26 13:36:32;;;;;;;8.30;5.72;;;25.10;99.90;;;;;;5009884;28;20026;-72
2021/06/26 13:38:58;;;;;;;34.78;7.60;;;25.20;99.90;;;;;;5025359;28;20501;-70
2021/06/26 13:41:24;;;;;;;9.93;6.22;;;25.20;99.90;;;;;;5014506;28;20511;-73
2021/06/26 13:43:50;;;;;;;14.07;6.78;;;25.20;99.90;;;;;;5005049;28;20034;-72
2021/06/26 13:46:15;;;;;;;11.13;7.07;;;25.40;99.90;;;;;;5012763;28;20038;-73
2021/06/26 13:48:41;;;;;;;10.65;6.25;;;25.60;99.90;;;;;;5017910;28;20540;-74
2021/06/26 13:51:08;;;;;;;10.80;6.50;;;25.80;99.90;;;;;;5024337;28;20032;-73
2021/06/26 13:53:33;;;;;;;12.32;7.45;;;25.90;99.90;;;;;;5024517;28;20110;-73
2021/06/26 13:55:59;;;;;;;12.30;6.75;;;26.00;99.90;;;;;;5023551;28;20033;-72
2021/06/26 13:58:25;;;;;;;9.38;6.22;;;26.20;99.90;;;;;;5025011;28;20497;-73
2021/06/26 14:00:51;;;;;;;15.70;7.40;;;26.30;99.90;;;;;;5024329;28;20037;-72
2021/06/26 14:03:17;;;;;;;13.68;7.95;;;26.40;99.90;;;;;;5023108;28;20026;-72
2021/06/26 14:05:44;;;;;;;9.20;5.90;;;26.40;99.90;;;;;;5024163;28;20029;-75
2021/06/26 14:08:11;;;;;;;13.10;7.00;;;26.50;99.90;;;;;;5023513;28;20034;-74
2021/06/26 14:10:38;;;;;;;11.10;6.25;;;26.50;99.90;;;;;;5020368;28;20033;-72
2021/06/26 14:13:08;;;;;;;10.88;6.78;;;26.60;99.90;;;;;;5005512;28;20069;-71
2021/06/26 14:15:34;;;;;;;12.48;7.40;;;26.80;99.90;;;;;;5005189;28;20050;-72
2021/06/26 14:18:00;;;;;;;11.77;7.00;;;27.10;99.90;;;;;;5021985;28;20042;-71
2021/06/26 14:20:26;;;;;;;14.65;7.22;;;27.40;99.90;;;;;;5025278;28;20508;-73
2021/06/26 14:22:52;;;;;;;10.25;7.15;;;27.80;99.90;;;;;;5022064;28;20041;-74
2021/06/26 14:25:18;;;;;;;16.85;7.80;;;28.30;99.90;;;;;;5021910;28;20033;-73
2021/06/26 14:27:45;;;;;;;21.92;6.88;;;28.70;99.90;;;;;;5005333;28;20026;-73
2021/06/26 14:30:13;;;;;;;13.05;5.28;;;29.10;99.90;;;;;;5005564;28;20030;-71
2021/06/26 14:32:39;;;;;;;8.95;5.10;;;29.20;99.90;;;;;;5006089;28;20030;-73
2021/06/26 14:35:06;;;;;;;7.65;4.55;;;28.90;99.90;;;;;;5024633;28;20114;-74
2021/06/26 14:37:33;;;;;;;10.05;5.85;;;28.50;99.90;;;;;;5021116;28;20069;-73
2021/06/26 14:39:59;;;;;;;9.25;5.50;;;28.10;99.90;;;;;;5017303;28;20104;-73
2021/06/26 14:42:25;;;;;;;10.32;6.18;;;27.70;99.90;;;;;;5012329;28;20116;-72
2021/06/26 14:44:51;;;;;;;9.98;5.20;;;27.20;99.90;;;;;;5019759;28;20030;-76
2021/06/26 14:47:18;;;;;;;9.68;5.43;;;26.90;99.90;;;;;;5005216;28;20034;-72
2021/06/26 14:49:44;;;;;;;14.40;7.20;;;26.50;99.90;;;;;;5004740;28;20086;-72
2021/06/26 14:52:11;;;;;;;8.38;5.30;;;26.30;99.90;;;;;;5004571;28;20041;-74
2021/06/26 14:54:39;;;;;;;10.48;6.63;;;26.10;99.90;;;;;;5005458;28;20111;-73
2021/06/26 14:57:06;;;;;;;9.50;5.45;;;25.80;99.90;;;;;;5005149;28;20042;-71
2021/06/26 14:59:32;;;;;;;8.10;5.07;;;25.70;99.90;;;;;;5009835;28;20037;-72
2021/06/26 15:01:57;;;;;;;5.95;3.83;;;25.60;99.90;;;;;;5017692;28;20046;-74
2021/06/26 15:04:23;;;;;;;6.05;3.78;;;25.40;99.90;;;;;;5022045;28;20022;-72
2021/06/26 15:06:49;;;;;;;8.57;5.10;;;25.40;99.90;;;;;;5015094;28;20034;-74
2021/06/26 15:09:14;;;;;;;9.75;6.10;;;25.30;99.90;;;;;;5014096;28;20423;-73
2021/06/26 15:11:40;;;;;;;10.43;5.68;;;25.30;99.90;;;;;;5008085;28;20516;-72
2021/06/26 15:14:11;;;;;;;12.48;6.13;;;25.20;99.90;;;;;;5024528;28;20418;-70
2021/06/26 15:16:37;;;;;;;9.95;5.57;;;25.10;99.90;;;;;;5024474;28;20030;-71
2021/06/26 15:19:03;;;;;;;10.32;5.20;;;25.00;99.90;;;;;;5024538;28;20049;-70
2021/06/26 15:21:29;;;;;;;10.35;4.85;;;25.00;99.90;;;;;;5024661;28;20080;-73
2021/06/26 15:23:54;;;;;;;13.18;6.05;;;24.90;99.90;;;;;;5023175;28;20097;-71
2021/06/26 15:26:20;;;;;;;7.72;4.82;;;24.80;99.90;;;;;;5024344;28;20030;-72
2021/06/26 15:28:46;;;;;;;5.80;3.97;;;24.80;99.90;;;;;;5024211;28;20026;-72
2021/06/26 15:31:11;;;;;;;5.30;3.22;;;24.70;99.90;;;;;;5024436;28;20033;-73
2021/06/26 15:33:37;;;;;;;6.43;4.10;;;24.70;99.90;;;;;;5024331;28;20030;-72
2021/06/26 15:36:04;;;;;;;8.13;3.95;;;24.60;99.90;;;;;;5023219;28;20037;-72
2021/06/26 15:38:30;;;;;;;8.45;4.22;;;24.50;99.90;;;;;;5022627;28;20490;-72
2021/06/26 15:40:58;;;;;;;11.48;4.70;;;24.50;99.90;;;;;;5024006;28;20045;-71
2021/06/26 15:43:24;;;;;;;11.00;6.43;;;24.40;99.90;;;;;;5024263;28;20030;-73
2021/06/26 15:45:52;;;;;;;10.27;6.03;;;24.20;99.90;;;;;;5025667;28;20046;-75
2021/06/26 15:48:19;;;;;;;13.48;6.78;;;24.00;99.90;;;;;;5027683;28;20022;-72
2021/06/26 15:50:48;;;;;;;12.45;6.05;;;23.80;99.90;;;;;;5028263;28;20022;-72
2021/06/26 15:53:16;;;;;;;13.57;7.00;;;23.70;99.90;;;;;;5027375;28;20034;-73
2021/06/26 15:55:42;;;;;;;13.90;7.15;;;23.60;99.90;;;;;;5026664;28;20030;-75
2021/06/26 15:58:08;;;;;;;8.65;5.82;;;23.50;99.90;;;;;;5028220;28;20073;-74
2021/06/26 16:00:35;;;;;;;10.88;6.05;;;23.40;99.90;;;;;;5021400;28;20069;-72
2021/06/26 16:03:01;;;;;;;9.10;5.45;;;23.30;99.90;;;;;;5022971;28;20053;-72
2021/06/26 16:05:27;;;;;;;12.48;6.50;;;23.30;99.90;;;;;;5008334;28;20027;-73
2021/06/26 16:07:53;;;;;;;12.07;6.68;;;23.20;99.90;;;;;;5007626;28;20034;-74
2021/06/26 16:10:20;;;;;;;12.70;6.80;;;23.10;99.90;;;;;;5007905;28;20037;-74
2021/06/26 16:12:46;;;;;;;11.80;6.88;;;22.90;99.90;;;;;;5007855;28;20038;-80
2021/06/26 16:15:13;;;;;;;14.68;8.32;;;22.70;99.90;;;;;;5021815;28;20074;-77
2021/06/26 16:17:39;;;;;;;13.10;7.03;;;22.40;99.90;;;;;;5008278;28;20081;-76
2021/06/26 16:20:08;;;;;;;13.45;8.23;;;22.30;99.90;;;;;;5006406;28;20077;-77
2021/06/26 16:22:34;;;;;;;15.13;8.80;;;22.10;99.90;;;;;;5022614;28;20034;-77
2021/06/26 16:25:01;;;;;;;17.20;8.65;;;21.90;99.90;;;;;;5006724;28;20033;-77
2021/06/26 16:27:26;;;;;;;13.52;8.05;;;21.80;99.90;;;;;;5022902;28;20023;-77
2021/06/26 16:29:52;;;;;;;17.23;8.52;;;21.80;99.90;;;;;;5006204;28;20414;-77
2021/06/26 16:32:18;;;;;;;18.67;9.95;;;21.70;99.90;;;;;;5007525;28;20041;-78
2021/06/26 16:34:44;;;;;;;16.42;8.85;;;21.60;99.90;;;;;;5022597;28;20033;-77
2021/06/26 16:37:10;;;;;;;13.48;8.18;;;21.60;99.90;;;;;;5006762;28;20069;-75
2021/06/26 16:39:56;;;;;;;17.20;7.00;;;21.60;99.90;;;;;;5006526;28;20033;-77
2021/06/26 16:42:21;;;;;;;19.35;8.45;;;21.70;99.90;;;;;;5022324;28;20033;-75
2021/06/26 16:44:48;;;;;;;14.20;8.32;;;21.70;99.90;;;;;;5011201;28;20038;-75
2021/06/26 16:47:14;;;;;;;11.05;7.18;;;22.00;99.90;;;;;;5018884;28;20037;-75
2021/06/26 16:49:39;;;;;;;14.32;7.60;;;22.60;99.90;;;;;;5015419;28;20034;-74
2021/06/26 16:52:07;;;;;;;11.63;6.18;;;23.50;99.90;;;;;;5007728;28;20037;-75
2021/06/26 16:54:33;;;;;;;13.73;6.75;;;24.40;99.90;;;;;;5007100;28;20616;-73
2021/06/26 16:56:59;;;;;;;12.95;6.45;;;25.10;99.90;;;;;;5006320;28;20038;-74
2021/06/26 16:59:24;;;;;;;13.02;5.80;;;25.80;99.90;;;;;;5006942;28;20027;-74
2021/06/26 17:01:51;;;;;;;15.35;5.75;;;26.40;99.90;;;;;;5006843;28;20026;-73
2021/06/26 17:04:18;;;;;;;11.65;4.50;;;26.80;99.90;;;;;;5006813;28;20026;-73
2021/06/26 17:06:43;;;;;;;7.40;5.30;;;27.20;99.90;;;;;;5007304;28;20467;-74
2021/06/26 17:09:09;;;;;;;12.10;5.38;;;27.40;99.90;;;;;;5006912;28;20041;-74
2021/06/26 17:11:36;;;;;;;9.68;5.70;;;27.60;99.90;;;;;;5021782;28;20390;-73
2021/06/26 17:14:02;;;;;;;10.68;5.57;;;27.80;99.90;;;;;;5021788;28;20058;-73
2021/06/26 17:16:27;;;;;;;13.05;6.00;;;27.80;99.90;;;;;;5007009;28;20030;-72
2021/06/26 17:18:53;;;;;;;11.60;6.95;;;27.90;99.90;;;;;;5006374;28;20483;-72
2021/06/26 17:21:19;;;;;;;14.77;6.53;;;28.00;99.90;;;;;;5007052;28;20026;-72
2021/06/26 17:23:45;;;;;;;12.10;6.15;;;28.20;99.90;;;;;;5006395;28;20073;-73
2021/06/26 17:26:11;;;;;;;14.18;6.40;;;28.40;99.90;;;;;;5005315;28;20106;-73
2021/06/26 17:28:38;;;;;;;11.30;6.53;;;28.40;99.90;;;;;;5006826;28;20078;-74
2021/06/26 17:31:07;;;;;;;8.80;5.47;;;28.20;99.90;;;;;;5006584;28;20038;-72
2021/06/26 17:33:34;;;;;;;10.23;6.35;;;28.00;99.90;;;;;;5006686;28;20394;-73
2021/06/26 17:35:59;;;;;;;13.38;6.63;;;27.90;99.90;;;;;;5006471;28;20018;-72
2021/06/26 17:38:27;;;;;;;13.38;7.22;;;27.90;99.90;;;;;;5005990;28;20089;-72
2021/06/26 17:40:53;;;;;;;8.85;5.72;;;27.90;99.90;;;;;;5006266;28;20027;-73
2021/06/26 17:43:19;;;;;;;16.98;6.60;;;27.80;99.90;;;;;;5010010;28;20050;-74
2021/06/26 17:45:46;;;;;;;14.55;6.18;;;27.50;99.90;;;;;;5013930;28;20034;-74
2021/06/26 17:48:12;;;;;;;11.02;6.35;;;27.30;99.90;;;;;;5021357;28;20031;-72
2021/06/26 17:50:40;;;;;;;11.55;5.95;;;27.30;99.90;;;;;;5021202;28;20429;-74
2021/06/26 17:53:06;;;;;;;12.85;6.53;;;27.20;99.90;;;;;;5007848;28;20085;-72
2021/06/26 17:55:32;;;;;;;9.10;5.88;;;27.10;99.90;;;;;;5006456;28;20081;-71
2021/06/26 17:57:58;;;;;;;7.90;5.30;;;26.90;99.90;;;;;;5023288;28;20072;-72
2021/06/26 18:00:25;;;;;;;8.48;5.07;;;26.70;99.90;;;;;;5012729;28;20038;-72
2021/06/26 18:02:51;;;;;;;11.07;6.05;;;26.50;99.90;;;;;;5023663;28;20041;-72
2021/06/26 18:05:17;;;;;;;10.75;6.03;;;26.20;99.90;;;;;;5010823;28;20023;-72
2021/06/26 18:07:43;;;;;;;11.88;6.35;;;25.90;99.90;;;;;;5023567;28;20386;-74
2021/06/26 18:10:11;;;;;;;10.52;6.10;;;25.60;99.90;;;;;;5020018;28;20033;-74
2021/06/26 18:12:42;;;;;;;11.63;6.10;;;25.40;99.90;;;;;;5015859;28;20029;-74
2021/06/26 18:15:10;;;;;;;7.95;4.88;;;25.20;99.90;;;;;;5013893;28;20045;-73
2021/06/26 18:17:37;;;;;;;8.23;5.07;;;25.00;99.90;;;;;;5021795;28;20046;-74
2021/06/26 18:20:07;;;;;;;10.60;5.80;;;24.80;99.90;;;;;;5020626;28;20030;-72
2021/06/26 18:22:33;;;;;;;9.63;5.25;;;24.70;99.90;;;;;;5012855;28;20030;-73
2021/06/26 18:25:02;;;;;;;9.10;5.57;;;24.60;99.90;;;;;;5014200;28;20029;-73
2021/06/26 18:27:51;;;;;;;9.27;4.72;;;24.40;99.90;;;;;;5015301;28;20030;-71
2021/06/26 18:30:21;;;;;;;9.45;4.80;;;24.30;99.90;;;;;;5005200;28;20058;-72
2021/06/26 18:32:47;;;;;;;12.27;5.63;;;24.10;99.90;;;;;;5003881;28;20030;-72
2021/06/26 18:35:16;;;;;;;10.93;5.38;;;24.10;99.90;;;;;;5019148;28;20446;-70
2021/06/26 18:37:43;;;;;;;12.48;6.38;;;24.00;99.90;;;;;;5024996;28;20044;-72
2021/06/26 18:40:12;;;;;;;7.90;5.05;;;23.90;99.90;;;;;;5015026;28;20042;-72
2021/06/26 18:42:41;;;;;;;6.93;4.07;;;23.80;99.90;;;;;;5014822;28;20151;-72
2021/06/26 18:45:10;;;;;;;10.70;5.25;;;23.80;99.90;;;;;;5025079;28;20036;-73
2021/06/26 18:47:37;;;;;;;7.82;4.90;;;23.60;99.90;;;;;;5024535;28;20026;-74
2021/06/26 18:50:05;;;;;;;11.23;5.90;;;23.60;99.90;;;;;;5024776;28;20030;-73
2021/06/26 18:52:31;;;;;;;12.98;6.03;;;23.40;99.90;;;;;;5021012;28;20030;-72
2021/06/26 18:54:56;;;;;;;9.73;5.35;;;23.30;99.90;;;;;;5004502;28;20237;-71
2021/06/26 18:57:22;;;;;;;12.98;6.18;;;23.20;99.90;;;;;;5004911;28;20042;-73